QLK121 YPAD-YSSY
Flight info
| Callsign | QLK121 |
|---|---|
| Flight time | 1h 43m |
| Altitude | 37000 |
| Route | AD H247 CULIN Y59 TESAT |
| Aircraft | A319/M-SDE3FGHIRWY/LB1 |
Departure
| Time | 2026-04-24 00:21 |
|---|---|
| Airport | Adelaide International Airport (YPAD) |
Arrival
| Time | 2026-04-24 02:04 |
|---|---|
| Airport | Sydney Kingsford Smith International Airport (YSSY) |
| Time | Latitude | Longitude | Altitude | Speed | Heading |
|---|---|---|---|---|---|
| 2026-04-24 00:09 | -34.93882 | 138.53892 | 28 ft | 0 kts | 320° |
| 2026-04-24 00:11 | -34.93896 | 138.53907 | 29 ft | 3 kts | 323° |
| 2026-04-24 00:11 | -34.93913 | 138.53923 | 25 ft | 4 kts | 317° |
| 2026-04-24 00:11 | -34.93932 | 138.53946 | 25 ft | 4 kts | 316° |
| 2026-04-24 00:12 | -34.93948 | 138.53967 | 24 ft | 4 kts | 281° |
| 2026-04-24 00:12 | -34.93944 | 138.53991 | 23 ft | 3 kts | 229° |
| 2026-04-24 00:12 | -34.93931 | 138.54008 | 22 ft | 0 kts | 227° |
| 2026-04-24 00:16 | -34.93934 | 138.54004 | 23 ft | 3 kts | 227° |
| 2026-04-24 00:16 | -34.93974 | 138.53948 | 24 ft | 14 kts | 229° |
| 2026-04-24 00:17 | -34.94056 | 138.53889 | 20 ft | 17 kts | 160° |
| 2026-04-24 00:17 | -34.94166 | 138.53838 | 22 ft | 22 kts | 232° |
| 2026-04-24 00:17 | -34.94283 | 138.53663 | 16 ft | 30 kts | 229° |
| 2026-04-24 00:17 | -34.94432 | 138.53451 | 15 ft | 30 kts | 230° |
| 2026-04-24 00:18 | -34.94485 | 138.53387 | 16 ft | 2 kts | 149° |
| 2026-04-24 00:18 | -34.94513 | 138.53429 | 15 ft | 12 kts | 127° |
| 2026-04-24 00:18 | -34.94569 | 138.53512 | 16 ft | 14 kts | 138° |
| 2026-04-24 00:18 | -34.94656 | 138.53467 | 20 ft | 20 kts | 231° |
| 2026-04-24 00:19 | -34.94777 | 138.53288 | 19 ft | 35 kts | 230° |
| 2026-04-24 00:19 | -34.94971 | 138.53006 | 19 ft | 52 kts | 230° |
| 2026-04-24 00:19 | -34.95225 | 138.52635 | 15 ft | 61 kts | 230° |
| 2026-04-24 00:19 | -34.95469 | 138.52276 | 17 ft | 48 kts | 229° |
| 2026-04-24 00:20 | -34.95679 | 138.51974 | 14 ft | 47 kts | 230° |
| 2026-04-24 00:20 | -34.95807 | 138.51767 | 12 ft | 14 kts | 254° |
| 2026-04-24 00:20 | -34.95826 | 138.51731 | 12 ft | 3 kts | 105° |
| 2026-04-24 00:20 | -34.95813 | 138.51776 | 12 ft | 11 kts | 57° |
| 2026-04-24 00:21 | -34.95680 | 138.51974 | 14 ft | 59 kts | 50° |
| 2026-04-24 00:21 | -34.95292 | 138.52537 | 15 ft | 115 kts | 50° |
| 2026-04-24 00:21 | -34.94665 | 138.53446 | 27 ft | 163 kts | 50° |
| 2026-04-24 00:21 | -34.93948 | 138.54476 | 671 ft | 155 kts | 49° |
| 2026-04-24 00:22 | -34.93248 | 138.55474 | 1270 ft | 155 kts | 49° |
| 2026-04-24 00:22 | -34.92511 | 138.56527 | 1625 ft | 174 kts | 49° |
| 2026-04-24 00:22 | -34.91676 | 138.57718 | 1917 ft | 196 kts | 49° |
| 2026-04-24 00:22 | -34.90737 | 138.59053 | 2248 ft | 217 kts | 49° |
| 2026-04-24 00:23 | -34.89717 | 138.60503 | 2640 ft | 240 kts | 49° |
| 2026-04-24 00:23 | -34.88616 | 138.62156 | 3214 ft | 260 kts | 58° |
| 2026-04-24 00:23 | -34.88051 | 138.64255 | 4084 ft | 266 kts | 85° |
| 2026-04-24 00:23 | -34.88122 | 138.66523 | 5043 ft | 270 kts | 95° |
| 2026-04-24 00:24 | -34.88267 | 138.68815 | 5988 ft | 273 kts | 95° |
| 2026-04-24 00:24 | -34.88419 | 138.71136 | 6898 ft | 277 kts | 95° |
| 2026-04-24 00:24 | -34.88573 | 138.73495 | 7774 ft | 281 kts | 95° |
| 2026-04-24 00:24 | -34.88729 | 138.75894 | 8644 ft | 285 kts | 95° |
| 2026-04-24 00:25 | -34.88883 | 138.78313 | 9491 ft | 289 kts | 94° |
| 2026-04-24 00:25 | -34.89034 | 138.80744 | 10227 ft | 297 kts | 94° |
| 2026-04-24 00:25 | -34.89196 | 138.83350 | 10506 ft | 320 kts | 94° |
| 2026-04-24 00:25 | -34.89368 | 138.86135 | 10893 ft | 336 kts | 94° |
| 2026-04-24 00:26 | -34.89545 | 138.89000 | 11566 ft | 342 kts | 94° |
| 2026-04-24 00:26 | -34.89724 | 138.91903 | 12283 ft | 346 kts | 94° |
| 2026-04-24 00:26 | -34.89904 | 138.94840 | 12985 ft | 349 kts | 94° |
| 2026-04-24 00:26 | -34.90085 | 138.97808 | 13663 ft | 353 kts | 94° |
| 2026-04-24 00:27 | -34.90270 | 139.00810 | 14329 ft | 356 kts | 94° |
| 2026-04-24 00:27 | -34.90456 | 139.03835 | 14977 ft | 360 kts | 94° |
| 2026-04-24 00:27 | -34.90645 | 139.06897 | 15615 ft | 363 kts | 94° |
| 2026-04-24 00:27 | -34.90832 | 139.09980 | 16240 ft | 366 kts | 94° |
| 2026-04-24 00:28 | -34.91017 | 139.13061 | 16850 ft | 370 kts | 94° |
| 2026-04-24 00:28 | -34.91205 | 139.16202 | 17458 ft | 373 kts | 94° |
| 2026-04-24 00:28 | -34.91392 | 139.19362 | 18057 ft | 375 kts | 94° |
| 2026-04-24 00:28 | -34.91579 | 139.22554 | 18639 ft | 379 kts | 94° |
| 2026-04-24 00:29 | -34.91768 | 139.25770 | 19215 ft | 382 kts | 94° |
| 2026-04-24 00:29 | -34.91959 | 139.29022 | 19785 ft | 385 kts | 94° |
| 2026-04-24 00:29 | -34.92153 | 139.32293 | 20341 ft | 388 kts | 94° |
| 2026-04-24 00:29 | -34.92349 | 139.35585 | 20880 ft | 391 kts | 94° |
| 2026-04-24 00:30 | -34.92546 | 139.38909 | 21398 ft | 395 kts | 94° |
| 2026-04-24 00:30 | -34.92740 | 139.42228 | 21899 ft | 398 kts | 94° |
| 2026-04-24 00:30 | -34.92934 | 139.45610 | 22395 ft | 401 kts | 94° |
| 2026-04-24 00:30 | -34.93125 | 139.49010 | 22868 ft | 404 kts | 94° |
| 2026-04-24 00:31 | -34.93316 | 139.52434 | 23325 ft | 407 kts | 94° |
| 2026-04-24 00:31 | -34.93507 | 139.55883 | 23774 ft | 409 kts | 94° |
| 2026-04-24 00:31 | -34.93702 | 139.59360 | 24217 ft | 412 kts | 94° |
| 2026-04-24 00:31 | -34.93899 | 139.62859 | 24642 ft | 415 kts | 94° |
| 2026-04-24 00:32 | -34.94097 | 139.66379 | 25052 ft | 418 kts | 94° |
| 2026-04-24 00:32 | -34.94295 | 139.69917 | 25454 ft | 420 kts | 94° |
| 2026-04-24 00:32 | -34.94492 | 139.73489 | 25857 ft | 423 kts | 94° |
| 2026-04-24 00:32 | -34.94688 | 139.77072 | 26241 ft | 425 kts | 94° |
| 2026-04-24 00:33 | -34.94882 | 139.80639 | 26620 ft | 428 kts | 94° |
| 2026-04-24 00:33 | -34.95080 | 139.84273 | 26997 ft | 430 kts | 94° |
| 2026-04-24 00:33 | -34.95280 | 139.87925 | 27364 ft | 432 kts | 94° |
| 2026-04-24 00:33 | -34.95479 | 139.91589 | 27727 ft | 435 kts | 94° |
| 2026-04-24 00:34 | -34.95678 | 139.95294 | 28084 ft | 437 kts | 94° |
| 2026-04-24 00:34 | -34.95877 | 139.99005 | 28434 ft | 439 kts | 94° |
| 2026-04-24 00:34 | -34.96074 | 140.02731 | 28773 ft | 442 kts | 94° |
| 2026-04-24 00:34 | -34.96270 | 140.06476 | 29102 ft | 444 kts | 94° |
| 2026-04-24 00:35 | -34.96466 | 140.10245 | 29422 ft | 446 kts | 94° |
| 2026-04-24 00:35 | -34.96659 | 140.13982 | 29729 ft | 448 kts | 94° |
| 2026-04-24 00:35 | -34.96856 | 140.17785 | 30032 ft | 450 kts | 94° |
| 2026-04-24 00:35 | -34.97053 | 140.21604 | 30326 ft | 452 kts | 94° |
| 2026-04-24 00:36 | -34.97248 | 140.25448 | 30609 ft | 455 kts | 94° |
| 2026-04-24 00:36 | -34.97444 | 140.29305 | 30879 ft | 456 kts | 94° |
| 2026-04-24 00:36 | -34.97574 | 140.31878 | 31071 ft | 458 kts | 94° |
| 2026-04-24 00:36 | -34.97762 | 140.35759 | 31336 ft | 460 kts | 92° |
| 2026-04-24 00:37 | -34.97877 | 140.39656 | 31678 ft | 459 kts | 91° |
| 2026-04-24 00:37 | -34.97919 | 140.43550 | 32058 ft | 458 kts | 90° |
| 2026-04-24 00:37 | -34.97915 | 140.48741 | 32551 ft | 457 kts | 90° |
| 2026-04-24 00:37 | -34.97905 | 140.51310 | 32791 ft | 457 kts | 90° |
| 2026-04-24 00:38 | -34.97895 | 140.55187 | 33165 ft | 456 kts | 90° |
| 2026-04-24 00:38 | -34.97898 | 140.59049 | 33508 ft | 455 kts | 90° |
| 2026-04-24 00:38 | -34.97919 | 140.62918 | 33863 ft | 455 kts | 90° |
| 2026-04-24 00:38 | -34.97949 | 140.66770 | 34216 ft | 454 kts | 90° |
| 2026-04-24 00:39 | -34.97981 | 140.70562 | 34564 ft | 453 kts | 90° |
| 2026-04-24 00:39 | -34.98011 | 140.74407 | 34909 ft | 453 kts | 90° |
| 2026-04-24 00:39 | -34.98036 | 140.78241 | 35244 ft | 452 kts | 90° |
| 2026-04-24 00:39 | -34.98054 | 140.82074 | 35565 ft | 451 kts | 90° |
| 2026-04-24 00:40 | -34.98068 | 140.85891 | 35875 ft | 451 kts | 90° |
| 2026-04-24 00:40 | -34.98084 | 140.89724 | 36176 ft | 450 kts | 90° |
| 2026-04-24 00:40 | -34.98101 | 140.93542 | 36462 ft | 450 kts | 90° |
| 2026-04-24 00:40 | -34.98118 | 140.97357 | 36725 ft | 449 kts | 90° |
| 2026-04-24 00:41 | -34.98137 | 141.01167 | 36943 ft | 450 kts | 90° |
| 2026-04-24 00:41 | -34.98153 | 141.04981 | 37006 ft | 449 kts | 90° |
| 2026-04-24 00:41 | -34.98172 | 141.12544 | 37009 ft | 449 kts | 90° |
| 2026-04-24 00:42 | -34.98189 | 141.20205 | 37009 ft | 449 kts | 90° |
| 2026-04-24 00:42 | -34.98203 | 141.27773 | 37009 ft | 449 kts | 90° |
| 2026-04-24 00:43 | -34.98215 | 141.35385 | 37009 ft | 449 kts | 90° |
| 2026-04-24 00:43 | -34.98221 | 141.42999 | 37010 ft | 449 kts | 90° |
| 2026-04-24 00:44 | -34.98220 | 141.50616 | 37010 ft | 449 kts | 90° |
| 2026-04-24 00:44 | -34.98210 | 141.58226 | 37010 ft | 449 kts | 90° |
| 2026-04-24 00:45 | -34.98191 | 141.65837 | 37009 ft | 449 kts | 90° |
| 2026-04-24 00:45 | -34.98181 | 141.73404 | 37006 ft | 448 kts | 90° |
| 2026-04-24 00:46 | -34.98161 | 141.81005 | 37004 ft | 448 kts | 90° |
| 2026-04-24 00:46 | -34.98132 | 141.88613 | 37004 ft | 449 kts | 90° |
| 2026-04-24 00:47 | -34.98102 | 141.96222 | 37005 ft | 449 kts | 90° |
| 2026-04-24 00:47 | -34.98063 | 142.03851 | 37008 ft | 449 kts | 90° |
| 2026-04-24 00:48 | -34.98025 | 142.11470 | 37010 ft | 449 kts | 89° |
| 2026-04-24 00:48 | -34.97987 | 142.19036 | 37012 ft | 449 kts | 89° |
| 2026-04-24 00:49 | -34.97944 | 142.26650 | 37012 ft | 449 kts | 89° |
| 2026-04-24 00:49 | -34.97888 | 142.34263 | 37011 ft | 449 kts | 89° |
| 2026-04-24 00:50 | -34.97823 | 142.41885 | 37011 ft | 449 kts | 89° |
| 2026-04-24 00:50 | -34.97758 | 142.49506 | 37010 ft | 449 kts | 89° |
| 2026-04-24 00:51 | -34.97689 | 142.57121 | 37010 ft | 449 kts | 89° |
| 2026-04-24 00:51 | -34.97618 | 142.64687 | 37010 ft | 449 kts | 89° |
| 2026-04-24 00:52 | -34.97541 | 142.72295 | 37010 ft | 449 kts | 89° |
| 2026-04-24 00:52 | -34.97459 | 142.79915 | 37010 ft | 449 kts | 89° |
| 2026-04-24 00:53 | -34.97370 | 142.87520 | 37011 ft | 449 kts | 89° |
| 2026-04-24 00:53 | -34.97279 | 142.95130 | 37011 ft | 449 kts | 89° |
| 2026-04-24 00:54 | -34.97184 | 143.02747 | 37011 ft | 449 kts | 89° |
| 2026-04-24 00:54 | -34.97079 | 143.10364 | 37011 ft | 449 kts | 89° |
| 2026-04-24 00:55 | -34.96970 | 143.17987 | 37012 ft | 449 kts | 89° |
| 2026-04-24 00:55 | -34.96861 | 143.25593 | 37012 ft | 449 kts | 89° |
| 2026-04-24 00:56 | -34.96766 | 143.33210 | 37012 ft | 449 kts | 89° |
| 2026-04-24 00:56 | -34.96679 | 143.40774 | 37013 ft | 449 kts | 89° |
| 2026-04-24 00:57 | -34.96584 | 143.48385 | 37013 ft | 449 kts | 89° |
| 2026-04-24 00:58 | -34.96430 | 143.59818 | 37014 ft | 449 kts | 89° |
| 2026-04-24 00:58 | -34.96319 | 143.67431 | 37014 ft | 449 kts | 89° |
| 2026-04-24 00:59 | -34.96202 | 143.75059 | 37014 ft | 449 kts | 89° |
| 2026-04-24 00:59 | -34.96090 | 143.82680 | 37014 ft | 449 kts | 89° |
| 2026-04-24 01:00 | -34.95965 | 143.90292 | 37015 ft | 449 kts | 89° |
| 2026-04-24 01:00 | -34.95830 | 143.97906 | 37015 ft | 449 kts | 89° |
| 2026-04-24 01:01 | -34.95695 | 144.05518 | 37015 ft | 449 kts | 89° |
| 2026-04-24 01:01 | -34.95556 | 144.13080 | 37016 ft | 449 kts | 89° |
| 2026-04-24 01:02 | -34.95412 | 144.20701 | 37016 ft | 449 kts | 89° |
| 2026-04-24 01:02 | -34.95266 | 144.28314 | 37016 ft | 449 kts | 89° |
| 2026-04-24 01:03 | -34.95114 | 144.35928 | 37016 ft | 449 kts | 88° |
| 2026-04-24 01:03 | -34.94955 | 144.43544 | 37017 ft | 449 kts | 88° |
| 2026-04-24 01:04 | -34.94794 | 144.51158 | 37017 ft | 449 kts | 88° |
| 2026-04-24 01:04 | -34.94623 | 144.58771 | 37017 ft | 449 kts | 88° |
| 2026-04-24 01:05 | -34.94455 | 144.66387 | 37018 ft | 449 kts | 88° |
| 2026-04-24 01:05 | -34.94277 | 144.74005 | 37018 ft | 450 kts | 88° |
| 2026-04-24 01:06 | -34.94089 | 144.81625 | 37018 ft | 450 kts | 88° |
| 2026-04-24 01:06 | -34.93900 | 144.89247 | 37018 ft | 450 kts | 88° |
| 2026-04-24 01:07 | -34.93715 | 144.96860 | 37019 ft | 450 kts | 88° |
| 2026-04-24 01:07 | -34.93520 | 145.04479 | 37019 ft | 450 kts | 88° |
| 2026-04-24 01:08 | -34.93313 | 145.12063 | 37019 ft | 450 kts | 88° |
| 2026-04-24 01:08 | -34.93104 | 145.19682 | 37019 ft | 450 kts | 88° |
| 2026-04-24 01:09 | -34.92883 | 145.27320 | 37020 ft | 450 kts | 88° |
| 2026-04-24 01:09 | -34.92662 | 145.34907 | 37020 ft | 450 kts | 88° |
| 2026-04-24 01:10 | -34.92436 | 145.42421 | 36936 ft | 440 kts | 88° |
| 2026-04-24 01:10 | -34.92324 | 145.46141 | 37092 ft | 439 kts | 90° |
| 2026-04-24 01:10 | -34.92214 | 145.49815 | 37294 ft | 440 kts | 90° |
| 2026-04-24 01:10 | -34.92100 | 145.53541 | 37490 ft | 442 kts | 90° |
| 2026-04-24 01:11 | -34.91984 | 145.57304 | 37490 ft | 446 kts | 91° |
| 2026-04-24 01:11 | -34.91743 | 145.64888 | 37493 ft | 449 kts | 90° |
| 2026-04-24 01:12 | -34.91493 | 145.72490 | 37495 ft | 449 kts | 90° |
| 2026-04-24 01:12 | -34.91242 | 145.80043 | 37509 ft | 449 kts | 91° |
| 2026-04-24 01:13 | -34.90986 | 145.87650 | 37510 ft | 449 kts | 91° |
| 2026-04-24 01:13 | -34.90725 | 145.95242 | 37516 ft | 448 kts | 90° |
| 2026-04-24 01:14 | -34.90454 | 146.02830 | 37518 ft | 448 kts | 90° |
| 2026-04-24 01:14 | -34.90185 | 146.10421 | 37527 ft | 448 kts | 91° |
| 2026-04-24 01:15 | -34.89913 | 146.17995 | 37524 ft | 447 kts | 91° |
| 2026-04-24 01:15 | -34.89639 | 146.25564 | 37522 ft | 446 kts | 91° |
| 2026-04-24 01:16 | -34.89361 | 146.33067 | 37533 ft | 446 kts | 91° |
| 2026-04-24 01:16 | -34.89074 | 146.40656 | 37527 ft | 445 kts | 91° |
| 2026-04-24 01:17 | -34.88788 | 146.48138 | 37523 ft | 445 kts | 91° |
| 2026-04-24 01:17 | -34.88488 | 146.55658 | 37517 ft | 444 kts | 91° |
| 2026-04-24 01:18 | -34.88182 | 146.63170 | 37524 ft | 444 kts | 91° |
| 2026-04-24 01:18 | -34.87880 | 146.70697 | 37520 ft | 444 kts | 91° |
| 2026-04-24 01:19 | -34.87575 | 146.78206 | 37524 ft | 444 kts | 91° |
| 2026-04-24 01:19 | -34.87260 | 146.85719 | 37534 ft | 444 kts | 91° |
| 2026-04-24 01:20 | -34.86944 | 146.93219 | 37532 ft | 443 kts | 91° |
| 2026-04-24 01:20 | -34.86625 | 147.00711 | 37527 ft | 443 kts | 91° |
| 2026-04-24 01:21 | -34.86302 | 147.08198 | 37525 ft | 442 kts | 91° |
| 2026-04-24 01:21 | -34.86026 | 147.14413 | 37536 ft | 442 kts | 91° |
| 2026-04-24 01:22 | -34.85635 | 147.23093 | 37534 ft | 441 kts | 91° |
| 2026-04-24 01:22 | -34.85303 | 147.30551 | 37530 ft | 441 kts | 91° |
| 2026-04-24 01:23 | -34.85021 | 147.36792 | 37528 ft | 440 kts | 91° |
| 2026-04-24 01:23 | -34.84675 | 147.44189 | 37538 ft | 440 kts | 91° |
| 2026-04-24 01:24 | -34.84322 | 147.51623 | 37537 ft | 439 kts | 91° |
| 2026-04-24 01:24 | -34.83968 | 147.59039 | 37530 ft | 439 kts | 91° |
| 2026-04-24 01:25 | -34.83612 | 147.66455 | 37544 ft | 439 kts | 91° |
| 2026-04-24 01:25 | -34.83248 | 147.73866 | 37537 ft | 438 kts | 91° |
| 2026-04-24 01:26 | -34.82882 | 147.81266 | 37533 ft | 437 kts | 91° |
| 2026-04-24 01:26 | -34.82511 | 147.88647 | 37533 ft | 437 kts | 91° |
| 2026-04-24 01:27 | -34.82141 | 147.96028 | 37550 ft | 436 kts | 91° |
| 2026-04-24 01:27 | -34.81767 | 148.03388 | 37540 ft | 435 kts | 91° |
| 2026-04-24 01:28 | -34.81388 | 148.10691 | 37539 ft | 435 kts | 91° |
| 2026-04-24 01:28 | -34.81003 | 148.18035 | 37536 ft | 435 kts | 91° |
| 2026-04-24 01:29 | -34.80608 | 148.25378 | 37548 ft | 434 kts | 91° |
| 2026-04-24 01:29 | -34.80212 | 148.32705 | 37542 ft | 433 kts | 91° |
| 2026-04-24 01:30 | -34.79814 | 148.40017 | 37535 ft | 433 kts | 91° |
| 2026-04-24 01:30 | -34.79410 | 148.47277 | 37533 ft | 432 kts | 91° |
| 2026-04-24 01:31 | -34.79003 | 148.54577 | 37542 ft | 432 kts | 91° |
| 2026-04-24 01:31 | -34.78598 | 148.61857 | 37535 ft | 431 kts | 91° |
| 2026-04-24 01:32 | -34.78195 | 148.69125 | 37540 ft | 431 kts | 91° |
| 2026-04-24 01:32 | -34.77775 | 148.76392 | 37556 ft | 430 kts | 91° |
| 2026-04-24 01:33 | -34.77355 | 148.83647 | 37540 ft | 429 kts | 91° |
| 2026-04-24 01:33 | -34.76926 | 148.90885 | 37541 ft | 429 kts | 91° |
| 2026-04-24 01:34 | -34.76492 | 148.98113 | 37531 ft | 429 kts | 91° |
| 2026-04-24 01:34 | -34.76280 | 149.01736 | 37364 ft | 429 kts | 91° |
| 2026-04-24 01:34 | -34.76066 | 149.05346 | 37124 ft | 428 kts | 91° |
| 2026-04-24 01:34 | -34.75848 | 149.08949 | 36563 ft | 428 kts | 91° |
| 2026-04-24 01:35 | -34.75631 | 149.12575 | 35865 ft | 431 kts | 91° |
| 2026-04-24 01:35 | -34.75414 | 149.16223 | 35112 ft | 435 kts | 91° |
| 2026-04-24 01:35 | -34.75196 | 149.19899 | 34278 ft | 438 kts | 91° |
| 2026-04-24 01:35 | -34.74972 | 149.23610 | 33471 ft | 440 kts | 91° |
| 2026-04-24 01:36 | -34.74741 | 149.27280 | 33083 ft | 432 kts | 91° |
| 2026-04-24 01:36 | -34.74508 | 149.30897 | 32585 ft | 427 kts | 91° |
| 2026-04-24 01:36 | -34.74278 | 149.34479 | 32072 ft | 423 kts | 91° |
| 2026-04-24 01:36 | -34.73840 | 149.38015 | 31561 ft | 425 kts | 82° |
| 2026-04-24 01:37 | -34.72893 | 149.41437 | 31018 ft | 430 kts | 71° |
| 2026-04-24 01:37 | -34.71525 | 149.44687 | 30467 ft | 430 kts | 68° |
| 2026-04-24 01:37 | -34.70124 | 149.47884 | 29884 ft | 426 kts | 67° |
| 2026-04-24 01:37 | -34.68741 | 149.51039 | 29570 ft | 417 kts | 67° |
| 2026-04-24 01:38 | -34.67413 | 149.54063 | 29464 ft | 403 kts | 67° |
| 2026-04-24 01:38 | -34.66113 | 149.57026 | 29372 ft | 391 kts | 67° |
| 2026-04-24 01:38 | -34.64854 | 149.59906 | 29266 ft | 382 kts | 68° |
| 2026-04-24 01:39 | -34.62371 | 149.65617 | 28811 ft | 382 kts | 66° |
| 2026-04-24 01:39 | -34.61125 | 149.68474 | 28366 ft | 382 kts | 66° |
| 2026-04-24 01:39 | -34.59880 | 149.71319 | 27917 ft | 381 kts | 66° |
| 2026-04-24 01:39 | -34.58647 | 149.74130 | 27482 ft | 380 kts | 65° |
| 2026-04-24 01:40 | -34.57407 | 149.76952 | 27045 ft | 378 kts | 65° |
| 2026-04-24 01:40 | -34.56169 | 149.79764 | 26623 ft | 376 kts | 65° |
| 2026-04-24 01:40 | -34.54938 | 149.82557 | 26220 ft | 374 kts | 65° |
| 2026-04-24 01:40 | -34.53717 | 149.85332 | 25812 ft | 372 kts | 65° |
| 2026-04-24 01:41 | -34.52501 | 149.88094 | 25415 ft | 369 kts | 64° |
| 2026-04-24 01:41 | -34.51292 | 149.90836 | 25018 ft | 367 kts | 64° |
| 2026-04-24 01:41 | -34.50089 | 149.93556 | 24605 ft | 365 kts | 64° |
| 2026-04-24 01:41 | -34.48892 | 149.96256 | 24198 ft | 363 kts | 63° |
| 2026-04-24 01:42 | -34.47699 | 149.98942 | 23741 ft | 361 kts | 63° |
| 2026-04-24 01:42 | -34.46517 | 150.01605 | 23309 ft | 357 kts | 63° |
| 2026-04-24 01:42 | -34.45349 | 150.04239 | 22889 ft | 353 kts | 63° |
| 2026-04-24 01:42 | -34.44194 | 150.06849 | 22462 ft | 350 kts | 64° |
| 2026-04-24 01:43 | -34.43049 | 150.09437 | 22031 ft | 347 kts | 64° |
| 2026-04-24 01:43 | -34.41915 | 150.12003 | 21597 ft | 345 kts | 63° |
| 2026-04-24 01:43 | -34.40796 | 150.14523 | 21162 ft | 343 kts | 63° |
| 2026-04-24 01:43 | -34.39669 | 150.17056 | 20721 ft | 341 kts | 63° |
| 2026-04-24 01:44 | -34.38545 | 150.19579 | 20276 ft | 339 kts | 64° |
| 2026-04-24 01:44 | -34.37429 | 150.22088 | 19846 ft | 338 kts | 64° |
| 2026-04-24 01:44 | -34.36315 | 150.24589 | 19391 ft | 337 kts | 64° |
| 2026-04-24 01:44 | -34.35205 | 150.27079 | 18947 ft | 335 kts | 64° |
| 2026-04-24 01:45 | -34.34100 | 150.29555 | 18479 ft | 334 kts | 64° |
| 2026-04-24 01:45 | -34.32997 | 150.32023 | 18007 ft | 331 kts | 64° |
| 2026-04-24 01:45 | -34.31907 | 150.34463 | 17577 ft | 328 kts | 64° |
| 2026-04-24 01:45 | -34.30825 | 150.36879 | 17143 ft | 325 kts | 64° |
| 2026-04-24 01:46 | -34.29752 | 150.39275 | 16707 ft | 323 kts | 64° |
| 2026-04-24 01:46 | -34.28685 | 150.41663 | 16279 ft | 321 kts | 64° |
| 2026-04-24 01:46 | -34.27627 | 150.44029 | 15849 ft | 319 kts | 64° |
| 2026-04-24 01:46 | -34.26573 | 150.46386 | 15421 ft | 318 kts | 63° |
| 2026-04-24 01:47 | -34.25522 | 150.48733 | 15000 ft | 317 kts | 63° |
| 2026-04-24 01:47 | -34.24487 | 150.51042 | 14581 ft | 316 kts | 63° |
| 2026-04-24 01:47 | -34.23441 | 150.53377 | 14135 ft | 315 kts | 63° |
| 2026-04-24 01:47 | -34.22401 | 150.55699 | 13693 ft | 313 kts | 63° |
| 2026-04-24 01:48 | -34.21368 | 150.58007 | 13270 ft | 311 kts | 63° |
| 2026-04-24 01:48 | -34.20339 | 150.60306 | 12857 ft | 309 kts | 63° |
| 2026-04-24 01:48 | -34.19315 | 150.62586 | 12449 ft | 308 kts | 63° |
| 2026-04-24 01:48 | -34.18297 | 150.64855 | 12037 ft | 306 kts | 63° |
| 2026-04-24 01:49 | -34.17284 | 150.67112 | 11627 ft | 305 kts | 63° |
| 2026-04-24 01:49 | -34.16275 | 150.69361 | 11226 ft | 304 kts | 63° |
| 2026-04-24 01:49 | -34.15269 | 150.71598 | 10826 ft | 302 kts | 63° |
| 2026-04-24 01:49 | -34.14290 | 150.73766 | 10619 ft | 293 kts | 63° |
| 2026-04-24 01:50 | -34.13323 | 150.75908 | 10183 ft | 289 kts | 63° |
| 2026-04-24 01:50 | -34.12368 | 150.78020 | 9878 ft | 283 kts | 63° |
| 2026-04-24 01:50 | -34.11431 | 150.80103 | 9482 ft | 281 kts | 63° |
| 2026-04-24 01:50 | -34.10498 | 150.82172 | 9102 ft | 279 kts | 63° |
| 2026-04-24 01:51 | -34.09571 | 150.84226 | 8797 ft | 276 kts | 63° |
| 2026-04-24 01:51 | -34.08660 | 150.86253 | 8571 ft | 274 kts | 62° |
| 2026-04-24 01:51 | -34.07754 | 150.88269 | 8341 ft | 272 kts | 62° |
| 2026-04-24 01:51 | -34.06853 | 150.90272 | 8099 ft | 271 kts | 62° |
| 2026-04-24 01:52 | -34.05955 | 150.92266 | 7863 ft | 270 kts | 62° |
| 2026-04-24 01:52 | -34.05062 | 150.94245 | 7634 ft | 268 kts | 61° |
| 2026-04-24 01:52 | -34.04174 | 150.96215 | 7405 ft | 267 kts | 61° |
| 2026-04-24 01:52 | -34.03299 | 150.98154 | 7170 ft | 266 kts | 61° |
| 2026-04-24 01:53 | -34.02416 | 151.00116 | 6941 ft | 265 kts | 61° |
| 2026-04-24 01:53 | -34.01541 | 151.02067 | 6690 ft | 264 kts | 62° |
| 2026-04-24 01:53 | -34.00673 | 151.04021 | 6451 ft | 264 kts | 62° |
| 2026-04-24 01:53 | -33.99814 | 151.05962 | 6212 ft | 262 kts | 62° |
| 2026-04-24 01:54 | -33.98958 | 151.07902 | 5974 ft | 260 kts | 62° |
| 2026-04-24 01:54 | -33.98107 | 151.09824 | 5739 ft | 260 kts | 62° |
| 2026-04-24 01:54 | -33.97257 | 151.11750 | 5506 ft | 260 kts | 62° |
| 2026-04-24 01:54 | -33.96414 | 151.13665 | 5272 ft | 259 kts | 63° |
| 2026-04-24 01:55 | -33.95503 | 151.15531 | 5026 ft | 259 kts | 52° |
| 2026-04-24 01:55 | -33.94119 | 151.16898 | 4795 ft | 261 kts | 27° |
| 2026-04-24 01:55 | -33.92371 | 151.17451 | 4559 ft | 263 kts | 3° |
| 2026-04-24 01:55 | -33.90573 | 151.17142 | 4325 ft | 266 kts | 347° |
| 2026-04-24 01:56 | -33.88772 | 151.16600 | 4085 ft | 266 kts | 347° |
| 2026-04-24 01:56 | -33.86968 | 151.16060 | 3848 ft | 268 kts | 348° |
| 2026-04-24 01:56 | -33.85178 | 151.15529 | 3700 ft | 260 kts | 347° |
| 2026-04-24 01:56 | -33.83451 | 151.15012 | 3591 ft | 251 kts | 346° |
| 2026-04-24 01:57 | -33.81954 | 151.14043 | 3488 ft | 242 kts | 321° |
| 2026-04-24 01:57 | -33.80770 | 151.12661 | 3384 ft | 232 kts | 313° |
| 2026-04-24 01:57 | -33.79671 | 151.11291 | 3276 ft | 223 kts | 315° |
| 2026-04-24 01:57 | -33.78612 | 151.09995 | 3169 ft | 211 kts | 315° |
| 2026-04-24 01:58 | -33.77599 | 151.08748 | 3079 ft | 207 kts | 315° |
| 2026-04-24 01:58 | -33.76598 | 151.07578 | 2974 ft | 201 kts | 324° |
| 2026-04-24 01:58 | -33.75305 | 151.07091 | 2994 ft | 196 kts | 6° |
| 2026-04-24 01:58 | -33.74065 | 151.07633 | 2985 ft | 189 kts | 42° |
| 2026-04-24 01:59 | -33.73346 | 151.08905 | 2989 ft | 185 kts | 75° |
| 2026-04-24 01:59 | -33.73287 | 151.10409 | 2988 ft | 179 kts | 105° |
| 2026-04-24 01:59 | -33.73839 | 151.11683 | 2991 ft | 174 kts | 133° |
| 2026-04-24 01:59 | -33.74852 | 151.12470 | 2984 ft | 178 kts | 162° |
| 2026-04-24 02:00 | -33.76065 | 151.12800 | 2998 ft | 179 kts | 166° |
| 2026-04-24 02:00 | -33.77293 | 151.13114 | 2997 ft | 180 kts | 166° |
| 2026-04-24 02:00 | -33.78510 | 151.13426 | 2871 ft | 177 kts | 166° |
| 2026-04-24 02:00 | -33.79703 | 151.13734 | 2670 ft | 174 kts | 166° |
| 2026-04-24 02:01 | -33.80868 | 151.14035 | 2459 ft | 168 kts | 165° |
| 2026-04-24 02:01 | -33.82003 | 151.14328 | 2233 ft | 165 kts | 166° |
| 2026-04-24 02:01 | -33.83105 | 151.14613 | 2082 ft | 159 kts | 166° |
| 2026-04-24 02:01 | -33.84193 | 151.14895 | 1818 ft | 159 kts | 166° |
| 2026-04-24 02:02 | -33.85241 | 151.15166 | 1610 ft | 155 kts | 166° |
| 2026-04-24 02:02 | -33.86290 | 151.15437 | 1394 ft | 152 kts | 166° |
| 2026-04-24 02:02 | -33.87259 | 151.15686 | 1196 ft | 133 kts | 165° |
| 2026-04-24 02:02 | -33.88138 | 151.15915 | 1044 ft | 128 kts | 163° |
| 2026-04-24 02:03 | -33.89837 | 151.16355 | 713 ft | 124 kts | 167° |
| 2026-04-24 02:03 | -33.90676 | 151.16573 | 531 ft | 121 kts | 166° |
| 2026-04-24 02:03 | -33.91508 | 151.16792 | 351 ft | 124 kts | 167° |
| 2026-04-24 02:04 | -33.92340 | 151.17000 | 170 ft | 122 kts | 166° |
| 2026-04-24 02:04 | -33.93153 | 151.17212 | 40 ft | 119 kts | 166° |
| 2026-04-24 02:04 | -33.93798 | 151.17389 | 26 ft | 57 kts | 168° |
| 2026-04-24 02:04 | -33.94069 | 151.17459 | 27 ft | 39 kts | 168° |
| 2026-04-24 02:05 | -33.94328 | 151.17551 | 30 ft | 38 kts | 152° |
| 2026-04-24 02:05 | -33.94456 | 151.17654 | 30 ft | 10 kts | 141° |
| 2026-04-24 02:05 | -33.94465 | 151.17663 | 30 ft | 0 kts | 141° |
| 2026-04-24 02:06 | -33.94467 | 151.17664 | 30 ft | 1 kts | 141° |
| 2026-04-24 02:06 | -33.94482 | 151.17679 | 30 ft | 4 kts | 141° |
| 2026-04-24 02:06 | -33.94512 | 151.17715 | 30 ft | 8 kts | 122° |
| 2026-04-24 02:06 | -33.94493 | 151.17778 | 30 ft | 10 kts | 20° |
| 2026-04-24 02:07 | -33.94414 | 151.17762 | 30 ft | 12 kts | 346° |
| 2026-04-24 02:07 | -33.94324 | 151.17733 | 30 ft | 14 kts | 345° |
| 2026-04-24 02:07 | -33.94219 | 151.17700 | 29 ft | 17 kts | 345° |
| 2026-04-24 02:07 | -33.94097 | 151.17663 | 28 ft | 20 kts | 346° |
| 2026-04-24 02:08 | -33.93956 | 151.17625 | 29 ft | 21 kts | 348° |
| 2026-04-24 02:08 | -33.93865 | 151.17668 | 29 ft | 16 kts | 71° |
| 2026-04-24 02:08 | -33.93833 | 151.17804 | 30 ft | 18 kts | 74° |
| 2026-04-24 02:08 | -33.93796 | 151.17960 | 30 ft | 20 kts | 74° |
| 2026-04-24 02:09 | -33.93756 | 151.18064 | 30 ft | 13 kts | 23° |
| 2026-04-24 02:09 | -33.93658 | 151.18051 | 30 ft | 15 kts | 358° |
| 2026-04-24 02:09 | -33.93563 | 151.18060 | 30 ft | 0 kts | 8° |
| 2026-04-24 02:10 | -33.93561 | 151.18057 | 30 ft | 1 kts | 335° |
| 2026-04-24 02:10 | -33.93561 | 151.18053 | 30 ft | 1 kts | 297° |
| 2026-04-24 02:10 | -33.93560 | 151.18024 | 30 ft | 4 kts | 277° |
| 2026-04-24 02:10 | -33.93557 | 151.18003 | 30 ft | 3 kts | 279° |
| 2026-04-24 02:11 | -33.93555 | 151.17987 | 30 ft | 0 kts | 280° |
| 2026-04-24 02:11 | -33.93555 | 151.17986 | 30 ft | 0 kts | 280° |